createdAt,value
2022-08-30T00:01:14.192Z,4.00
2022-08-30T00:06:20.937Z,3.00
2022-08-30T00:11:24.948Z,3.60
2022-08-30T00:16:28.041Z,4.00
2022-08-30T00:21:32.911Z,3.80
2022-08-30T00:26:35.821Z,3.00
2022-08-30T00:31:39.151Z,3.00
2022-08-30T00:36:43.440Z,3.40
2022-08-30T00:41:46.767Z,3.20
2022-08-30T00:46:49.465Z,3.00
2022-08-30T00:51:53.504Z,3.00
2022-08-30T00:56:56.150Z,3.00
2022-08-30T01:01:59.121Z,3.00
2022-08-30T01:07:03.324Z,3.00
2022-08-30T01:12:06.358Z,2.60
2022-08-30T01:17:09.213Z,3.00
2022-08-30T01:22:20.954Z,3.00
2022-08-30T01:27:25.035Z,3.00
2022-08-30T01:32:29.789Z,3.00
2022-08-30T01:37:33.201Z,3.40
2022-08-30T01:42:37.533Z,4.00
2022-08-30T01:47:40.617Z,3.00
2022-08-30T01:52:43.429Z,3.00
2022-08-30T01:57:49.734Z,2.60
2022-08-30T02:02:52.738Z,3.60
2022-08-30T02:07:55.467Z,3.00
2022-08-30T02:13:00.445Z,3.20
2022-08-30T02:18:03.150Z,3.00
2022-08-30T02:23:05.823Z,3.00
2022-08-30T02:28:09.924Z,2.00
2022-08-30T02:33:12.704Z,3.00
2022-08-30T02:38:15.407Z,3.00
2022-08-30T02:43:24.103Z,3.00
2022-08-30T02:48:26.805Z,3.00
2022-08-30T02:53:29.594Z,3.00
2022-08-30T02:58:33.792Z,3.00
2022-08-30T03:03:36.838Z,3.00
2022-08-30T03:08:39.598Z,3.00
2022-08-30T03:13:43.888Z,2.00
2022-08-30T03:18:46.588Z,3.00
2022-08-30T03:23:49.290Z,3.00
2022-08-30T03:28:53.422Z,2.80
2022-08-30T03:33:56.235Z,3.20
2022-08-30T03:38:59.041Z,3.00
2022-08-30T03:44:04.540Z,3.00
2022-08-30T03:49:09.413Z,3.00
2022-08-30T03:54:12.111Z,3.00
2022-08-30T03:59:16.466Z,2.60
2022-08-30T04:04:21.134Z,3.40
2022-08-30T04:09:24.797Z,2.00
2022-08-30T04:14:28.927Z,2.40
2022-08-30T04:19:31.662Z,2.80
2022-08-30T04:24:34.898Z,2.80
2022-08-30T04:29:39.057Z,2.00
2022-08-30T04:34:42.085Z,2.00
2022-08-30T04:39:46.215Z,2.00
2022-08-30T04:44:50.948Z,2.60
2022-08-30T04:49:53.889Z,2.00
2022-08-30T04:54:56.683Z,2.20
2022-08-30T05:00:00.809Z,2.00
2022-08-30T05:05:21.272Z,3.00
2022-08-30T05:10:24.095Z,2.20
2022-08-30T05:15:28.154Z,2.40
2022-08-30T05:20:30.955Z,2.00
2022-08-30T05:25:35.142Z,1.80
2022-08-30T05:30:39.346Z,3.00
2022-08-30T05:35:42.222Z,2.60
2022-08-30T05:40:45.182Z,2.00
2022-08-30T05:45:49.645Z,1.80
2022-08-30T05:50:52.365Z,2.00
2022-08-30T05:55:55.180Z,2.00
2022-08-30T06:00:59.239Z,2.00
2022-08-30T06:06:02.392Z,2.00
2022-08-30T06:11:05.299Z,2.00
2022-08-30T06:16:09.562Z,1.80
2022-08-30T06:21:17.379Z,2.00
2022-08-30T06:26:20.290Z,2.00
2022-08-30T06:31:25.041Z,1.00
2022-08-30T06:36:27.808Z,2.00
2022-08-30T06:41:31.911Z,1.00
2022-08-30T06:46:38.509Z,2.00
2022-08-30T06:51:42.062Z,2.00
2022-08-30T06:56:58.222Z,2.00
2022-08-30T07:02:03.104Z,2.00
2022-08-30T07:07:06.130Z,1.40
2022-08-30T07:12:09.600Z,2.00
2022-08-30T07:17:34.565Z,2.00
2022-08-30T07:22:37.662Z,1.60
2022-08-30T07:27:40.396Z,1.00
2022-08-30T07:32:44.455Z,2.00
2022-08-30T07:37:47.189Z,2.00
2022-08-30T07:42:49.878Z,2.20
2022-08-30T07:47:53.970Z,1.00
2022-08-30T07:52:56.784Z,1.80
2022-08-30T07:57:59.516Z,1.00
2022-08-30T08:03:07.810Z,1.20
2022-08-30T08:08:10.909Z,1.00
2022-08-30T08:13:13.759Z,1.20
2022-08-30T08:18:18.031Z,1.00
2022-08-30T08:23:21.703Z,2.00
2022-08-30T08:28:24.678Z,1.00
2022-08-30T08:33:28.731Z,1.00
2022-08-30T08:38:31.895Z,1.00
2022-08-30T08:43:36.587Z,2.00
2022-08-30T08:48:58.930Z,1.80
2022-08-30T08:54:03.645Z,1.00
2022-08-30T08:59:08.346Z,1.00
2022-08-30T09:04:14.153Z,2.00
2022-08-30T09:09:17.545Z,2.00
2022-08-30T09:14:21.692Z,1.00
2022-08-30T09:19:41.060Z,1.00
2022-08-30T09:24:45.228Z,1.00
2022-08-30T09:29:52.371Z,1.20
2022-08-30T09:34:57.126Z,1.00
2022-08-30T09:39:59.961Z,1.00
2022-08-30T09:45:12.690Z,1.00
2022-08-30T09:50:17.785Z,0.60
2022-08-30T09:55:27.074Z,2.00
2022-08-30T10:00:32.438Z,1.00
2022-08-30T10:05:40.998Z,1.40
2022-08-30T10:10:47.804Z,1.00
2022-08-30T10:15:52.120Z,1.00
2022-08-30T10:20:59.161Z,1.00
2022-08-30T10:26:07.513Z,0.40
2022-08-30T10:31:12.241Z,1.00
2022-08-30T10:36:16.510Z,0.40
2022-08-30T10:41:24.896Z,1.00
2022-08-30T10:46:31.033Z,1.00
2022-08-30T10:51:41.401Z,1.00
2022-08-30T10:56:44.318Z,1.00
2022-08-30T11:02:01.503Z,1.00
2022-08-30T11:07:10.818Z,1.00
2022-08-30T11:12:36.485Z,1.00
2022-08-30T11:17:46.329Z,1.00
2022-08-30T11:23:33.047Z,1.00
2022-08-30T11:29:03.063Z,1.00
2022-08-30T11:34:06.385Z,1.00
2022-08-30T11:39:09.755Z,1.00
2022-08-30T11:44:27.261Z,0.40
2022-08-30T11:49:55.847Z,1.00
2022-08-30T11:55:22.529Z,2.00
2022-08-30T12:00:34.194Z,1.00
2022-08-30T12:05:59.017Z,1.00
2022-08-30T12:11:03.662Z,1.00
2022-08-30T12:16:09.372Z,1.00
2022-08-30T12:21:28.175Z,1.00
2022-08-30T12:26:33.788Z,1.00
2022-08-30T12:31:42.022Z,1.00
2022-08-30T12:36:52.499Z,1.00
2022-08-30T12:41:55.402Z,1.00
2022-08-30T12:47:01.880Z,1.00
2022-08-30T12:52:19.566Z,1.00
2022-08-30T12:57:38.625Z,1.00
2022-08-30T13:02:47.690Z,0.80
2022-08-30T13:07:51.372Z,0.60
2022-08-30T13:12:59.907Z,3.00
2022-08-30T13:18:18.791Z,4.00
2022-08-30T13:23:29.532Z,5.00
2022-08-30T13:28:32.503Z,6.00
2022-08-30T13:33:36.649Z,6.00
2022-08-30T13:38:39.582Z,5.00
2022-08-30T13:54:42.252Z,6.00
2022-08-30T13:59:45.004Z,6.60
2022-08-30T14:04:57.693Z,8.00
2022-08-30T14:15:26.644Z,7.00
2022-08-30T14:20:30.682Z,7.00
2022-08-30T14:25:34.121Z,7.00
2022-08-30T14:30:36.871Z,8.00
2022-08-30T14:35:42.389Z,7.60
2022-08-30T14:40:45.127Z,7.80
2022-08-30T14:45:47.916Z,7.00
2022-08-30T14:50:52.236Z,7.00
2022-08-30T14:55:55.035Z,6.80
2022-08-30T15:00:58.069Z,7.00
2022-08-30T15:06:02.146Z,7.00
2022-08-30T15:11:09.566Z,5.00
2022-08-30T15:16:13.172Z,6.80
2022-08-30T15:21:23.517Z,6.40
2022-08-30T15:26:29.036Z,6.00
2022-08-30T15:31:32.199Z,6.00
2022-08-30T15:36:37.049Z,6.80
2022-08-30T15:41:40.610Z,6.60
2022-08-30T15:46:47.373Z,6.60
2022-08-30T15:51:54.097Z,6.00
2022-08-30T15:56:59.976Z,5.20
2022-08-30T16:02:02.913Z,5.60
2022-08-30T16:07:07.500Z,5.00
2022-08-30T16:12:10.744Z,7.00
2022-08-30T16:17:14.182Z,5.80
2022-08-30T16:22:21.982Z,5.80
2022-08-30T16:27:25.115Z,6.60
2022-08-30T16:32:27.901Z,6.00
2022-08-30T16:37:32.053Z,5.00
2022-08-30T16:42:35.030Z,6.00
2022-08-30T16:47:37.744Z,6.00
2022-08-30T16:52:44.312Z,5.00
2022-08-30T16:57:47.173Z,5.20
2022-08-30T17:02:54.039Z,4.00
2022-08-30T17:07:58.452Z,4.80
2022-08-30T17:13:01.255Z,5.00
2022-08-30T17:18:04.040Z,4.20
2022-08-30T17:23:08.764Z,4.80
2022-08-30T17:28:11.534Z,4.60
2022-08-30T17:33:15.004Z,4.00
2022-08-30T17:38:21.887Z,4.00
2022-08-30T17:43:24.773Z,4.00
2022-08-30T17:48:27.524Z,4.00
2022-08-30T17:53:32.104Z,4.00
2022-08-30T17:58:35.064Z,4.00
2022-08-30T18:03:37.991Z,4.00
2022-08-30T18:08:42.545Z,4.00
2022-08-30T18:13:45.379Z,5.00
2022-08-30T18:18:55.630Z,4.20
2022-08-30T18:24:01.575Z,4.80
2022-08-30T18:29:04.788Z,4.00
2022-08-30T18:34:12.248Z,5.00
2022-08-30T18:39:34.576Z,4.00
2022-08-30T18:44:37.830Z,4.00
2022-08-30T18:49:40.555Z,4.00
2022-08-30T18:54:52.553Z,4.00
2022-08-30T18:59:55.754Z,4.00
2022-08-30T19:04:59.160Z,3.60
2022-08-30T19:10:03.531Z,4.00
2022-08-30T19:15:10.771Z,4.00
2022-08-30T19:20:15.553Z,4.00
2022-08-30T19:25:20.426Z,4.00
2022-08-30T19:30:29.312Z,4.00
2022-08-30T19:35:32.770Z,4.00
2022-08-30T19:40:37.101Z,4.00
2022-08-30T19:45:39.904Z,4.00
2022-08-30T19:50:42.765Z,3.60
2022-08-30T19:55:48.620Z,5.00
2022-08-30T20:00:56.086Z,4.20
2022-08-30T20:06:10.886Z,4.00
2022-08-30T20:11:15.750Z,4.00
2022-08-30T20:16:18.489Z,4.00
2022-08-30T20:21:21.272Z,4.00
2022-08-30T20:26:31.599Z,4.40
2022-08-30T20:31:37.212Z,5.80
2022-08-30T20:36:40.563Z,4.00
2022-08-30T20:41:45.230Z,5.00
2022-08-30T20:46:49.523Z,5.00
2022-08-30T20:51:54.506Z,4.40
2022-08-30T20:56:58.759Z,4.40
2022-08-30T21:02:01.664Z,4.00
2022-08-30T21:07:05.907Z,4.20
2022-08-30T21:12:10.547Z,6.00
2022-08-30T21:17:13.593Z,5.00
2022-08-30T21:22:16.306Z,4.00
2022-08-30T21:27:21.229Z,4.00
2022-08-30T21:32:24.119Z,5.00
2022-08-30T21:37:27.072Z,5.00
2022-08-30T21:42:32.135Z,5.00
2022-08-30T21:47:35.154Z,6.00
2022-08-30T21:52:37.870Z,5.00
2022-08-30T21:57:42.163Z,5.20
2022-08-30T22:02:45.132Z,5.20
2022-08-30T22:07:51.837Z,5.00
2022-08-30T22:12:55.985Z,5.00
2022-08-30T22:18:00.588Z,4.20
2022-08-30T22:23:03.904Z,4.20
2022-08-30T22:28:07.963Z,4.00
2022-08-30T22:33:10.833Z,4.00
2022-08-30T22:38:14.426Z,3.60
2022-08-30T22:43:18.961Z,3.00
2022-08-30T22:48:21.713Z,4.20
2022-08-30T22:53:24.676Z,3.00
2022-08-30T22:58:28.796Z,3.40
2022-08-30T23:03:31.540Z,4.00
2022-08-30T23:08:34.252Z,3.00
2022-08-30T23:13:38.544Z,3.00
2022-08-30T23:18:41.598Z,3.20
2022-08-30T23:24:01.982Z,2.80
2022-08-30T23:29:23.686Z,2.00
2022-08-30T23:34:44.113Z,2.60
2022-08-30T23:40:04.425Z,2.60
2022-08-30T23:45:27.240Z,2.00
2022-08-30T23:50:47.697Z,2.00
2022-08-30T23:56:07.903Z,2.40
